createdAt,value
2023-02-04T00:00:24.835Z,95.20
2023-02-04T00:02:53.102Z,95.10
2023-02-04T00:05:21.971Z,95.10
2023-02-04T00:07:50.392Z,94.90
2023-02-04T00:10:19.027Z,95.10
2023-02-04T00:12:48.698Z,95.10
2023-02-04T00:15:16.866Z,95.30
2023-02-04T00:17:45.168Z,95.00
2023-02-04T00:20:13.734Z,95.00
2023-02-04T00:22:42.742Z,94.80
2023-02-04T00:25:13.812Z,95.00
2023-02-04T00:27:43.579Z,94.70
2023-02-04T00:30:15.004Z,94.60
2023-02-04T00:32:43.295Z,94.80
2023-02-04T00:35:14.241Z,94.70
2023-02-04T00:37:42.503Z,94.50
2023-02-04T00:40:12.280Z,94.50
2023-02-04T00:42:41.270Z,94.40
2023-02-04T00:45:10.466Z,94.60
2023-02-04T00:47:41.533Z,94.30
2023-02-04T00:50:10.222Z,94.00
2023-02-04T00:52:38.565Z,93.60
2023-02-04T00:55:10.317Z,93.20
2023-02-04T00:57:38.664Z,92.90
2023-02-04T01:00:07.250Z,92.40
2023-02-04T01:02:35.316Z,92.40
2023-02-04T01:05:05.184Z,92.00
2023-02-04T01:07:33.822Z,92.00
2023-02-04T01:10:02.379Z,91.70
2023-02-04T01:12:31.766Z,91.70
2023-02-04T01:15:00.937Z,91.10
2023-02-04T01:17:29.601Z,90.60
2023-02-04T01:19:57.881Z,90.50
2023-02-04T01:22:27.437Z,90.50
2023-02-04T01:24:55.674Z,90.60
2023-02-04T01:27:43.765Z,90.60
2023-02-04T01:30:14.645Z,90.60
2023-02-04T01:32:43.078Z,90.50
2023-02-04T01:35:11.263Z,90.60
2023-02-04T01:37:41.476Z,90.10
2023-02-04T01:40:11.940Z,90.30
2023-02-04T01:42:40.532Z,90.30
2023-02-04T01:45:10.630Z,90.50
2023-02-04T01:47:40.319Z,90.30
2023-02-04T01:50:11.906Z,90.30
2023-02-04T01:52:42.325Z,90.40
2023-02-04T01:55:15.279Z,90.60
2023-02-04T01:57:44.205Z,90.30
2023-02-04T02:00:17.825Z,90.20
2023-02-04T02:02:50.540Z,90.20
2023-02-04T02:05:22.963Z,90.10
2023-02-04T02:07:56.311Z,90.10
2023-02-04T02:10:25.629Z,89.90
2023-02-04T02:12:55.978Z,90.00
2023-02-04T02:15:24.946Z,90.10
2023-02-04T02:17:53.934Z,90.20
2023-02-04T02:20:24.665Z,90.30
2023-02-04T02:23:03.727Z,90.20
2023-02-04T02:25:34.253Z,90.20
2023-02-04T02:28:08.597Z,90.20
2023-02-04T02:30:37.210Z,90.50
2023-02-04T02:33:06.317Z,90.50
2023-02-04T02:35:35.155Z,91.00
2023-02-04T02:38:03.620Z,91.30
2023-02-04T02:40:33.672Z,91.40
2023-02-04T02:43:03.613Z,91.40
2023-02-04T02:45:34.784Z,91.40
2023-02-04T02:48:04.006Z,91.40
2023-02-04T02:50:34.334Z,91.50
2023-02-04T02:53:04.270Z,91.50
2023-02-04T02:55:34.307Z,91.70
2023-02-04T02:58:19.328Z,91.50
2023-02-04T03:00:47.808Z,91.40
2023-02-04T03:03:20.175Z,91.30
2023-02-04T03:05:51.385Z,91.30
2023-02-04T03:08:20.523Z,91.20
2023-02-04T03:10:50.508Z,91.00
2023-02-04T03:13:19.279Z,91.00
2023-02-04T03:15:49.963Z,90.90
2023-02-04T03:18:20.695Z,91.00
2023-02-04T03:20:51.521Z,90.90
2023-02-04T03:23:21.089Z,90.80
2023-02-04T03:25:50.795Z,90.90
2023-02-04T03:28:19.372Z,90.90
2023-02-04T03:30:56.103Z,90.80
2023-02-04T03:33:25.369Z,90.80
2023-02-04T03:35:53.729Z,90.60
2023-02-04T03:38:22.275Z,90.80
2023-02-04T03:40:51.831Z,90.90
2023-02-04T03:43:20.508Z,90.90
2023-02-04T03:45:48.851Z,90.90
2023-02-04T03:48:17.054Z,90.80
2023-02-04T03:50:45.765Z,90.60
2023-02-04T03:53:14.116Z,90.70
2023-02-04T03:55:42.460Z,90.70
2023-02-04T03:58:12.203Z,90.60
2023-02-04T04:00:40.552Z,90.60
2023-02-04T04:03:08.785Z,90.70
2023-02-04T04:05:37.075Z,90.80
2023-02-04T04:08:05.641Z,90.90
2023-02-04T04:10:34.417Z,90.90
2023-02-04T04:13:03.030Z,91.10
2023-02-04T04:15:32.678Z,91.10
2023-02-04T04:18:00.869Z,91.40
2023-02-04T04:20:29.353Z,91.50
2023-02-04T04:22:57.846Z,91.70
2023-02-04T04:25:26.184Z,91.70
2023-02-04T04:27:54.633Z,92.00
2023-02-04T04:30:23.021Z,91.80
2023-02-04T04:32:52.592Z,92.00
2023-02-04T04:35:20.948Z,92.10
2023-02-04T04:37:49.302Z,91.30
2023-02-04T04:40:17.743Z,91.20
2023-02-04T04:42:45.925Z,91.30
2023-02-04T04:45:14.422Z,90.90
2023-02-04T04:47:42.684Z,90.40
2023-02-04T04:50:12.459Z,90.10
2023-02-04T04:52:40.699Z,90.30
2023-02-04T04:55:10.360Z,89.80
2023-02-04T04:57:38.649Z,89.90
2023-02-04T05:00:08.527Z,89.90
2023-02-04T05:02:36.901Z,89.70
2023-02-04T05:05:05.461Z,89.90
2023-02-04T05:07:35.246Z,90.00
2023-02-04T05:10:03.570Z,90.30
2023-02-04T05:12:31.840Z,90.20
2023-02-04T05:15:00.992Z,90.00
2023-02-04T05:17:29.712Z,89.70
2023-02-04T05:19:57.927Z,89.00
2023-02-04T05:22:26.207Z,88.70
2023-02-04T05:24:55.857Z,87.10
2023-02-04T05:27:24.271Z,86.20
2023-02-04T05:29:52.589Z,87.10
2023-02-04T05:32:20.745Z,87.70
2023-02-04T05:34:48.948Z,86.30
2023-02-04T05:37:19.068Z,86.20
2023-02-04T05:39:47.338Z,86.40
2023-02-04T05:42:16.681Z,87.00
2023-02-04T05:44:44.727Z,87.60
2023-02-04T05:47:13.134Z,87.80
2023-02-04T05:49:41.130Z,87.60
2023-02-04T05:52:09.693Z,87.10
2023-02-04T05:54:37.763Z,87.30
2023-02-04T05:57:06.039Z,87.40
2023-02-04T05:59:35.850Z,87.70
2023-02-04T06:02:04.145Z,87.60
2023-02-04T06:04:32.298Z,87.40
2023-02-04T06:07:00.875Z,87.10
2023-02-04T06:09:30.131Z,86.70
2023-02-04T06:11:58.561Z,86.30
2023-02-04T06:14:26.672Z,86.30
2023-02-04T06:16:56.264Z,86.90
2023-02-04T06:19:24.571Z,87.10
2023-02-04T06:21:52.920Z,87.00
2023-02-04T06:24:21.583Z,86.70
2023-02-04T06:26:49.847Z,86.90
2023-02-04T06:29:19.354Z,87.00
2023-02-04T06:31:49.367Z,87.50
2023-02-04T06:34:19.192Z,88.00
2023-02-04T06:36:47.515Z,88.40
2023-02-04T06:39:15.731Z,88.80
2023-02-04T06:41:43.912Z,88.20
2023-02-04T06:44:12.109Z,88.20
2023-02-04T06:46:40.735Z,88.10
2023-02-04T06:49:08.938Z,87.90
2023-02-04T06:51:38.667Z,86.90
2023-02-04T06:54:06.927Z,86.80
2023-02-04T06:56:35.279Z,87.40
2023-02-04T06:59:03.761Z,87.30
2023-02-04T07:01:32.185Z,87.60
2023-02-04T07:04:00.465Z,87.70
2023-02-04T07:06:29.030Z,87.60
2023-02-04T07:08:58.741Z,87.20
2023-02-04T07:11:27.066Z,86.70
2023-02-04T07:13:55.286Z,86.40
2023-02-04T07:16:23.523Z,87.20
2023-02-04T07:18:51.801Z,87.30
2023-02-04T07:21:20.098Z,88.00
2023-02-04T07:23:48.238Z,87.90
2023-02-04T07:26:17.899Z,88.40
2023-02-04T07:28:47.196Z,87.70
2023-02-04T07:31:15.914Z,87.30
2023-02-04T07:33:46.127Z,87.80
2023-02-04T07:36:15.326Z,87.50
2023-02-04T07:38:43.733Z,88.20
2023-02-04T07:41:12.013Z,88.30
2023-02-04T07:43:41.711Z,88.80
2023-02-04T07:46:10.134Z,87.80
2023-02-04T07:48:38.618Z,87.80
2023-02-04T07:51:07.138Z,88.10
2023-02-04T07:53:35.300Z,87.60
2023-02-04T07:56:03.794Z,87.70
2023-02-04T07:58:32.131Z,87.60
2023-02-04T08:01:02.398Z,87.70
2023-02-04T08:03:32.864Z,87.50
2023-02-04T08:06:01.710Z,87.70
2023-02-04T08:08:29.948Z,87.70
2023-02-04T08:10:58.803Z,87.70
2023-02-04T08:13:27.416Z,87.80
2023-02-04T08:15:55.745Z,88.10
2023-02-04T08:18:26.276Z,88.50
2023-02-04T08:20:54.611Z,88.50
2023-02-04T08:23:23.119Z,88.40
2023-02-04T08:25:51.318Z,88.30
2023-02-04T08:28:19.850Z,88.40
2023-02-04T08:30:48.402Z,88.90
2023-02-04T08:33:16.768Z,88.50
2023-02-04T08:35:46.368Z,88.40
2023-02-04T08:38:33.129Z,87.90
2023-02-04T11:10:00.908Z,90.70
2023-02-04T11:13:23.752Z,74.90
2023-02-04T11:16:35.625Z,73.60
2023-02-04T11:19:35.836Z,71.70
2023-02-04T11:22:37.023Z,71.20
2023-02-04T11:25:39.532Z,69.20
2023-02-04T11:28:28.548Z,72.10
2023-02-04T11:31:01.297Z,68.20
2023-02-04T11:33:40.748Z,67.00
2023-02-04T11:36:13.429Z,68.30
2023-02-04T11:38:46.539Z,65.40
2023-02-04T11:41:23.704Z,65.20
2023-02-04T11:43:52.814Z,61.30
2023-02-04T11:46:21.728Z,62.30
2023-02-04T11:48:53.566Z,60.10
2023-02-04T11:51:22.632Z,60.40
2023-02-04T11:53:52.112Z,61.70
2023-02-04T11:56:22.374Z,61.40
2023-02-04T11:58:51.114Z,62.20
2023-02-04T12:01:21.106Z,59.50
2023-02-04T12:03:51.461Z,60.70
2023-02-04T12:06:24.360Z,61.00
2023-02-04T12:08:52.657Z,62.10
2023-02-04T12:11:31.211Z,62.50
2023-02-04T12:14:00.527Z,60.40
2023-02-04T12:16:29.217Z,60.40
2023-02-04T12:18:57.675Z,58.60
2023-02-04T12:21:25.888Z,60.20
2023-02-04T12:23:53.889Z,58.70
2023-02-04T12:26:21.990Z,59.10
2023-02-04T12:28:51.522Z,55.80
2023-02-04T12:31:19.950Z,57.80
2023-02-04T12:33:48.236Z,55.70
2023-02-04T12:36:16.494Z,55.50
2023-02-04T12:38:44.688Z,57.70
2023-02-04T12:41:12.899Z,56.10
2023-02-04T12:43:41.151Z,49.50
2023-02-04T12:46:10.778Z,49.50
2023-02-04T12:48:41.183Z,49.00
2023-02-04T12:51:09.458Z,53.90
2023-02-04T12:53:37.694Z,46.80
2023-02-04T12:56:06.929Z,45.50
2023-02-04T12:58:35.222Z,41.10
2023-02-04T13:01:04.595Z,41.90
2023-02-04T13:03:35.032Z,43.40
2023-02-04T13:06:04.897Z,42.50
2023-02-04T13:08:33.157Z,41.30
2023-02-04T13:11:01.625Z,39.60
2023-02-04T13:13:29.939Z,39.20
2023-02-04T13:15:58.266Z,39.30
2023-02-04T13:18:26.603Z,40.20
2023-02-04T13:20:56.244Z,41.30
2023-02-04T13:23:24.629Z,42.00
2023-02-04T13:25:52.913Z,41.40
2023-02-04T13:28:21.513Z,39.30
2023-02-04T13:30:49.850Z,40.70
2023-02-04T13:33:18.125Z,38.40
2023-02-04T13:35:46.374Z,38.40
2023-02-04T13:38:16.052Z,37.80
2023-02-04T13:40:50.990Z,34.20
2023-02-04T13:43:19.472Z,37.40
2023-02-04T13:45:49.097Z,36.40
2023-02-04T13:48:17.746Z,38.80
2023-02-04T13:50:46.079Z,37.90
2023-02-04T13:53:15.728Z,34.90
2023-02-04T13:55:44.165Z,33.30
2023-02-04T13:58:12.968Z,31.40
2023-02-04T14:00:41.396Z,32.20
2023-02-04T14:03:09.850Z,33.10
2023-02-04T14:05:38.372Z,35.00
2023-02-04T14:08:06.678Z,33.20
2023-02-04T14:10:38.553Z,33.20
2023-02-04T14:13:07.124Z,32.30
2023-02-04T14:15:37.706Z,33.00
2023-02-04T14:18:06.915Z,32.50
2023-02-04T14:20:35.812Z,32.50
2023-02-04T14:23:04.996Z,32.10
2023-02-04T14:25:33.246Z,32.00
2023-02-04T14:28:04.016Z,32.10
2023-02-04T14:30:33.700Z,31.60
2023-02-04T14:33:02.165Z,32.00
2023-02-04T14:35:30.477Z,32.20
2023-02-04T14:37:59.010Z,33.60
2023-02-04T14:40:27.376Z,33.40
2023-02-04T14:43:15.763Z,32.40
2023-02-04T14:45:44.126Z,31.70
2023-02-04T14:48:13.400Z,30.20
2023-02-04T14:50:41.733Z,29.90
2023-02-04T14:53:10.067Z,29.50
2023-02-04T14:55:38.402Z,28.50
2023-02-04T14:58:06.780Z,29.00
2023-02-04T15:00:36.394Z,28.70
2023-02-04T15:03:05.676Z,27.80
2023-02-04T15:05:33.996Z,27.80
2023-02-04T15:08:02.361Z,27.90
2023-02-04T15:10:30.874Z,29.30
2023-02-04T15:12:59.558Z,28.10
2023-02-04T15:15:27.965Z,28.50
2023-02-04T15:17:57.640Z,28.50
2023-02-04T15:20:26.206Z,29.80
2023-02-04T15:22:56.414Z,28.70
2023-02-04T15:25:25.201Z,29.60
2023-02-04T15:27:53.589Z,29.80
2023-02-04T15:30:22.032Z,31.00
2023-02-04T15:32:50.434Z,32.10
2023-02-04T15:35:21.946Z,32.60
2023-02-04T15:37:50.368Z,31.60
2023-02-04T15:40:19.404Z,35.50
2023-02-04T15:42:47.754Z,35.40
2023-02-04T15:45:16.137Z,35.60
2023-02-04T15:47:44.592Z,34.10
2023-02-04T15:50:15.218Z,33.00
2023-02-04T15:52:45.026Z,32.80
2023-02-04T15:55:13.303Z,32.30
2023-02-04T15:57:41.605Z,32.50
2023-02-04T16:00:10.963Z,33.40
2023-02-04T16:02:39.291Z,32.60
2023-02-04T16:05:08.580Z,32.60
2023-02-04T16:07:36.876Z,32.40
2023-02-04T16:10:07.074Z,32.10
2023-02-04T16:12:35.410Z,32.70
2023-02-04T16:15:03.510Z,33.40
2023-02-04T16:17:32.096Z,33.40
2023-02-04T16:20:00.166Z,35.00
2023-02-04T16:22:28.324Z,35.30
2023-02-04T16:24:56.483Z,35.80
2023-02-04T16:27:26.827Z,36.80
2023-02-04T16:29:56.748Z,36.70
2023-02-04T16:32:25.066Z,37.60
2023-02-04T16:34:53.716Z,37.40
2023-02-04T16:37:22.132Z,37.30
2023-02-04T16:39:51.542Z,37.30
2023-02-04T16:42:19.670Z,36.00
2023-02-04T16:44:49.058Z,36.60
2023-02-04T16:47:17.331Z,36.80
2023-02-04T16:49:45.942Z,37.50
2023-02-04T16:52:14.010Z,37.90
2023-02-04T16:54:42.032Z,37.90
2023-02-04T16:57:10.156Z,37.60
2023-02-04T16:59:38.346Z,36.50
2023-02-04T17:02:07.774Z,37.60
2023-02-04T17:04:35.790Z,38.10
2023-02-04T17:07:04.207Z,39.00
2023-02-04T17:09:32.311Z,39.60
2023-02-04T17:12:00.368Z,41.00
2023-02-04T17:14:28.495Z,41.30
2023-02-04T17:16:56.631Z,41.60
2023-02-04T17:19:26.158Z,41.80
2023-02-04T17:21:54.243Z,42.20
2023-02-04T17:24:23.067Z,42.40
2023-02-04T17:26:51.214Z,42.00
2023-02-04T17:29:21.931Z,41.50
2023-02-04T17:31:52.683Z,41.80
2023-02-04T17:34:20.897Z,43.20
2023-02-04T17:36:50.347Z,43.80
2023-02-04T17:39:18.447Z,42.80
2023-02-04T17:41:46.648Z,42.80
2023-02-04T17:44:18.972Z,43.00
2023-02-04T17:46:47.074Z,43.20
2023-02-04T17:49:16.070Z,43.20
2023-02-04T17:51:44.276Z,44.00
2023-02-04T17:54:15.254Z,44.50
2023-02-04T17:56:43.646Z,44.40
2023-02-04T17:59:11.992Z,44.00
2023-02-04T18:01:41.408Z,41.90
2023-02-04T18:04:12.593Z,43.40
2023-02-04T18:06:40.641Z,43.30
2023-02-04T18:09:15.586Z,43.70
2023-02-04T18:11:43.740Z,44.00
2023-02-04T18:14:14.397Z,45.00
2023-02-04T18:16:42.467Z,45.50
2023-02-04T18:19:17.190Z,46.30
2023-02-04T18:21:45.264Z,46.90
2023-02-04T18:24:19.250Z,47.20
2023-02-04T18:26:49.208Z,46.30
2023-02-04T18:29:22.402Z,46.20
2023-02-04T18:31:53.374Z,45.20
2023-02-04T18:34:26.716Z,45.30
2023-02-04T18:36:55.253Z,45.30
2023-02-04T18:39:27.172Z,45.20
2023-02-04T18:41:55.472Z,45.40
2023-02-04T18:44:27.831Z,45.30
2023-02-04T18:46:56.006Z,45.30
2023-02-04T18:49:26.916Z,45.30
2023-02-04T18:51:55.729Z,45.30
2023-02-04T18:54:36.508Z,45.40
2023-02-04T18:57:38.328Z,45.40
2023-02-04T19:00:32.712Z,45.50
2023-02-04T19:03:10.730Z,45.40
2023-02-04T19:05:48.569Z,45.40
2023-02-04T19:08:28.232Z,45.40
2023-02-04T19:10:59.157Z,44.90
2023-02-04T19:13:38.279Z,44.90
2023-02-04T19:16:21.521Z,45.40
2023-02-04T19:18:50.145Z,45.20
2023-02-04T19:21:27.476Z,43.50
2023-02-04T19:24:02.696Z,44.20
2023-02-04T19:26:36.009Z,45.10
2023-02-04T19:29:38.185Z,45.10
2023-02-04T19:32:21.847Z,45.10
2023-02-04T19:34:50.582Z,44.80
2023-02-04T19:37:23.543Z,45.70
2023-02-04T19:39:52.696Z,46.70
2023-02-04T19:42:30.542Z,47.90
2023-02-04T19:45:00.392Z,48.20
2023-02-04T19:47:30.346Z,49.60
2023-02-04T19:50:04.605Z,48.90
2023-02-04T19:52:37.580Z,48.50
2023-02-04T19:55:43.253Z,49.30
2023-02-04T19:58:18.009Z,48.30
2023-02-04T20:00:52.349Z,48.40
2023-02-04T20:03:31.394Z,48.20
2023-02-04T20:06:05.365Z,48.60
2023-02-04T20:08:46.442Z,48.90
2023-02-04T20:11:57.123Z,48.60
2023-02-04T20:14:49.637Z,48.90
2023-02-04T20:17:34.061Z,48.50
2023-02-04T20:20:17.097Z,48.40
2023-02-04T20:22:48.046Z,48.10
2023-02-04T20:25:45.604Z,48.20
2023-02-04T20:28:39.986Z,48.60
2023-02-04T20:31:28.772Z,48.80
2023-02-04T20:33:59.226Z,48.90
2023-02-04T20:36:38.480Z,49.20
2023-02-04T20:39:35.635Z,49.90
2023-02-04T20:42:43.803Z,49.80
2023-02-04T20:45:36.950Z,49.90
2023-02-04T20:48:28.564Z,50.20
2023-02-04T20:50:58.565Z,49.60
2023-02-04T20:53:28.315Z,49.80
2023-02-04T20:56:03.701Z,49.80
2023-02-04T20:58:37.525Z,49.80
2023-02-04T21:01:19.705Z,49.30
2023-02-04T21:03:51.280Z,49.20
2023-02-04T21:06:24.524Z,49.10
2023-02-04T21:08:54.168Z,48.40
2023-02-04T21:11:22.989Z,47.90
2023-02-04T21:13:53.275Z,47.80
2023-02-04T21:16:22.608Z,48.10
2023-02-04T21:18:54.136Z,47.50
2023-02-04T21:21:24.555Z,46.80
2023-02-04T21:23:52.905Z,47.00
2023-02-04T21:26:21.176Z,46.20
2023-02-04T21:28:49.511Z,45.50
2023-02-04T21:31:17.872Z,45.50
2023-02-04T21:33:46.175Z,45.20
2023-02-04T21:36:15.907Z,45.80
2023-02-04T21:38:44.211Z,45.50
2023-02-04T21:41:12.529Z,44.90
2023-02-04T21:43:40.994Z,44.90
2023-02-04T21:46:09.504Z,44.80
2023-02-04T21:48:37.790Z,44.80
2023-02-04T21:51:07.803Z,44.80
2023-02-04T21:53:38.941Z,44.60
2023-02-04T21:56:07.824Z,43.90
2023-02-04T21:58:36.251Z,44.20
2023-02-04T22:01:04.627Z,44.20
2023-02-04T22:03:32.984Z,43.80
2023-02-04T22:06:01.850Z,43.60
2023-02-04T22:08:30.199Z,44.00
2023-02-04T22:11:00.514Z,44.10
2023-02-04T22:13:29.009Z,44.30
2023-02-04T22:15:57.358Z,44.90
2023-02-04T22:18:25.720Z,44.30
2023-02-04T22:20:53.951Z,44.80
2023-02-04T22:23:22.229Z,44.80
2023-02-04T22:25:50.541Z,44.80
2023-02-04T22:28:20.207Z,44.80
2023-02-04T22:30:48.616Z,44.80
2023-02-04T22:33:16.961Z,44.70
2023-02-04T22:35:45.934Z,44.60
2023-02-04T22:38:14.310Z,44.70
2023-02-04T22:40:42.512Z,44.50
2023-02-04T22:43:10.847Z,44.70
2023-02-04T22:45:40.472Z,44.50
2023-02-04T22:48:08.772Z,44.50
2023-02-04T22:50:37.196Z,44.30
2023-02-04T22:53:05.475Z,44.30
2023-02-04T22:55:34.071Z,44.20
2023-02-04T22:58:02.722Z,44.20
2023-02-04T23:00:31.027Z,44.10
2023-02-04T23:03:00.765Z,44.00
2023-02-04T23:05:29.117Z,44.40
2023-02-04T23:07:57.365Z,44.00
2023-02-04T23:10:25.647Z,43.90
2023-02-04T23:12:53.854Z,44.70
2023-02-04T23:15:22.125Z,45.30
2023-02-04T23:17:52.403Z,45.20
2023-02-04T23:20:22.219Z,45.40
2023-02-04T23:22:50.580Z,45.80
2023-02-04T23:25:19.947Z,45.20
2023-02-04T23:27:48.313Z,43.40
2023-02-04T23:30:17.326Z,44.20
2023-02-04T23:32:45.651Z,45.00
2023-02-04T23:35:14.266Z,44.20
2023-02-04T23:37:43.832Z,44.90
2023-02-04T23:40:12.530Z,45.10
2023-02-04T23:42:40.899Z,45.00
2023-02-04T23:45:09.817Z,44.80
2023-02-04T23:47:38.194Z,44.70
2023-02-04T23:50:07.005Z,45.50
2023-02-04T23:52:35.573Z,45.50
2023-02-04T23:55:05.847Z,45.80
2023-02-04T23:57:34.105Z,45.80
